TVF7377 LFKF-LFRS
Flight info
| Callsign | TVF7377 |
|---|---|
| Flight time | 1h 37m |
| Altitude | 38000 |
| Route | TINOT DCT AMFAC DCT FJR DCT GAI DCT SECHE DCT UVELI DCT CNA DCT MANAK |
| Aircraft | B738/M-SDE2E3FGHIRWXY/LB1 |
Departure
| Time | 2026-05-06 16:14 |
|---|---|
| Airport | Figari Sud-Corse Airport (LFKF) |
Arrival
| Time | 2026-05-06 17:51 |
|---|---|
| Airport | Nantes Atlantique Airport (LFRS) |
| Time | Latitude | Longitude | Altitude | Speed | Heading |
|---|---|---|---|---|---|
| 2026-05-06 15:55 | 41.49994 | 9.09825 | 71 ft | 0 kts | 137° |
| 2026-05-06 16:10 | 41.50019 | 9.09793 | 62 ft | 6 kts | 115° |
| 2026-05-06 16:10 | 41.50017 | 9.09750 | 61 ft | 0 kts | 45° |
| 2026-05-06 16:11 | 41.50018 | 9.09750 | 61 ft | 1 kts | 45° |
| 2026-05-06 16:11 | 41.50090 | 9.09802 | 71 ft | 18 kts | 359° |
| 2026-05-06 16:11 | 41.50187 | 9.09707 | 64 ft | 17 kts | 332° |
| 2026-05-06 16:12 | 41.50298 | 9.09802 | 67 ft | 24 kts | 49° |
| 2026-05-06 16:12 | 41.50408 | 9.09958 | 68 ft | 23 kts | 46° |
| 2026-05-06 16:12 | 41.50518 | 9.10123 | 69 ft | 28 kts | 47° |
| 2026-05-06 16:12 | 41.50653 | 9.10314 | 71 ft | 28 kts | 47° |
| 2026-05-06 16:13 | 41.50776 | 9.10501 | 71 ft | 26 kts | 49° |
| 2026-05-06 16:13 | 41.50889 | 9.10666 | 70 ft | 23 kts | 58° |
| 2026-05-06 16:13 | 41.50949 | 9.10764 | 68 ft | 6 kts | 323° |
| 2026-05-06 16:13 | 41.50937 | 9.10713 | 62 ft | 17 kts | 219° |
| 2026-05-06 16:14 | 41.50643 | 9.10302 | 67 ft | 103 kts | 228° |
| 2026-05-06 16:14 | 41.49996 | 9.09335 | 120 ft | 169 kts | 229° |
| 2026-05-06 16:14 | 41.49104 | 9.08216 | 996 ft | 180 kts | 220° |
| 2026-05-06 16:14 | 41.48096 | 9.07358 | 2339 ft | 166 kts | 207° |
| 2026-05-06 16:15 | 41.47021 | 9.06793 | 3311 ft | 169 kts | 204° |
| 2026-05-06 16:15 | 41.45863 | 9.06228 | 3822 ft | 192 kts | 202° |
| 2026-05-06 16:15 | 41.44525 | 9.05578 | 4100 ft | 217 kts | 202° |
| 2026-05-06 16:15 | 41.43039 | 9.04848 | 4390 ft | 235 kts | 206° |
| 2026-05-06 16:16 | 41.41756 | 9.03509 | 4922 ft | 239 kts | 234° |
| 2026-05-06 16:16 | 41.41062 | 9.01499 | 5551 ft | 244 kts | 255° |
| 2026-05-06 16:16 | 41.40879 | 8.99170 | 5963 ft | 260 kts | 269° |
| 2026-05-06 16:16 | 41.40901 | 8.96725 | 6730 ft | 265 kts | 270° |
| 2026-05-06 16:17 | 41.40935 | 8.94274 | 7671 ft | 265 kts | 269° |
| 2026-05-06 16:17 | 41.40952 | 8.91813 | 8552 ft | 267 kts | 268° |
| 2026-05-06 16:17 | 41.40956 | 8.89326 | 9419 ft | 270 kts | 267° |
| 2026-05-06 16:17 | 41.40958 | 8.86817 | 10230 ft | 274 kts | 269° |
| 2026-05-06 16:18 | 41.41374 | 8.84231 | 10513 ft | 304 kts | 291° |
| 2026-05-06 16:18 | 41.42566 | 8.81762 | 10725 ft | 331 kts | 303° |
| 2026-05-06 16:18 | 41.44010 | 8.79225 | 10911 ft | 354 kts | 304° |
| 2026-05-06 16:18 | 41.45556 | 8.76581 | 11338 ft | 367 kts | 304° |
| 2026-05-06 16:19 | 41.47136 | 8.73881 | 12017 ft | 371 kts | 304° |
| 2026-05-06 16:19 | 41.48701 | 8.71186 | 12743 ft | 374 kts | 304° |
| 2026-05-06 16:19 | 41.50292 | 8.68420 | 13469 ft | 378 kts | 304° |
| 2026-05-06 16:19 | 41.51894 | 8.65617 | 14113 ft | 381 kts | 303° |
| 2026-05-06 16:20 | 41.53505 | 8.62784 | 14744 ft | 385 kts | 303° |
| 2026-05-06 16:20 | 41.55130 | 8.59920 | 15369 ft | 389 kts | 303° |
| 2026-05-06 16:20 | 41.56769 | 8.57028 | 16006 ft | 392 kts | 303° |
| 2026-05-06 16:20 | 41.58421 | 8.54111 | 16608 ft | 396 kts | 303° |
| 2026-05-06 16:21 | 41.60089 | 8.51164 | 17202 ft | 400 kts | 303° |
| 2026-05-06 16:21 | 41.61772 | 8.48186 | 17826 ft | 402 kts | 302° |
| 2026-05-06 16:21 | 41.63459 | 8.45183 | 18402 ft | 406 kts | 302° |
| 2026-05-06 16:21 | 41.65153 | 8.42150 | 18922 ft | 409 kts | 302° |
| 2026-05-06 16:22 | 41.66854 | 8.39095 | 19450 ft | 411 kts | 302° |
| 2026-05-06 16:22 | 41.68568 | 8.36016 | 19976 ft | 414 kts | 302° |
| 2026-05-06 16:22 | 41.70291 | 8.32917 | 20480 ft | 416 kts | 301° |
| 2026-05-06 16:22 | 41.72025 | 8.29797 | 20976 ft | 419 kts | 301° |
| 2026-05-06 16:23 | 41.73770 | 8.26656 | 21462 ft | 422 kts | 301° |
| 2026-05-06 16:23 | 41.75526 | 8.23490 | 21934 ft | 425 kts | 301° |
| 2026-05-06 16:23 | 41.77291 | 8.20308 | 22407 ft | 427 kts | 301° |
| 2026-05-06 16:23 | 41.79068 | 8.17099 | 22853 ft | 430 kts | 301° |
| 2026-05-06 16:24 | 41.80853 | 8.13872 | 23300 ft | 433 kts | 301° |
| 2026-05-06 16:24 | 41.82649 | 8.10622 | 23690 ft | 435 kts | 301° |
| 2026-05-06 16:24 | 41.84455 | 8.07352 | 24062 ft | 437 kts | 301° |
| 2026-05-06 16:24 | 41.86267 | 8.04066 | 24440 ft | 439 kts | 301° |
| 2026-05-06 16:25 | 41.88085 | 8.00768 | 24817 ft | 441 kts | 301° |
| 2026-05-06 16:25 | 41.89910 | 7.97452 | 25171 ft | 442 kts | 300° |
| 2026-05-06 16:25 | 41.91738 | 7.94126 | 25527 ft | 444 kts | 300° |
| 2026-05-06 16:25 | 41.93578 | 7.90776 | 25877 ft | 446 kts | 300° |
| 2026-05-06 16:26 | 41.95420 | 7.87418 | 26220 ft | 448 kts | 300° |
| 2026-05-06 16:26 | 41.97271 | 7.84040 | 26551 ft | 449 kts | 300° |
| 2026-05-06 16:26 | 41.99126 | 7.80649 | 26884 ft | 451 kts | 300° |
| 2026-05-06 16:26 | 42.00985 | 7.77249 | 27195 ft | 453 kts | 300° |
| 2026-05-06 16:27 | 42.02851 | 7.73832 | 27500 ft | 454 kts | 300° |
| 2026-05-06 16:27 | 42.04723 | 7.70399 | 27834 ft | 455 kts | 300° |
| 2026-05-06 16:27 | 42.06567 | 7.67018 | 28275 ft | 453 kts | 300° |
| 2026-05-06 16:27 | 42.08449 | 7.63563 | 28800 ft | 450 kts | 299° |
| 2026-05-06 16:28 | 42.10114 | 7.60060 | 29269 ft | 438 kts | 287° |
| 2026-05-06 16:28 | 42.11162 | 7.56263 | 29721 ft | 431 kts | 283° |
| 2026-05-06 16:28 | 42.12152 | 7.52465 | 30145 ft | 429 kts | 283° |
| 2026-05-06 16:28 | 42.13150 | 7.48686 | 30506 ft | 428 kts | 283° |
| 2026-05-06 16:29 | 42.14160 | 7.44908 | 30841 ft | 428 kts | 283° |
| 2026-05-06 16:29 | 42.15173 | 7.41150 | 31206 ft | 427 kts | 283° |
| 2026-05-06 16:29 | 42.16188 | 7.37404 | 31589 ft | 425 kts | 283° |
| 2026-05-06 16:29 | 42.17200 | 7.33676 | 31964 ft | 423 kts | 283° |
| 2026-05-06 16:30 | 42.18210 | 7.29951 | 32300 ft | 422 kts | 283° |
| 2026-05-06 16:30 | 42.18876 | 7.27493 | 32520 ft | 421 kts | 283° |
| 2026-05-06 16:30 | 42.20215 | 7.22541 | 33001 ft | 419 kts | 282° |
| 2026-05-06 16:30 | 42.21211 | 7.18853 | 33363 ft | 418 kts | 282° |
| 2026-05-06 16:31 | 42.22188 | 7.15225 | 33699 ft | 416 kts | 282° |
| 2026-05-06 16:31 | 42.23186 | 7.11516 | 34021 ft | 415 kts | 282° |
| 2026-05-06 16:31 | 42.24157 | 7.07900 | 34283 ft | 414 kts | 282° |
| 2026-05-06 16:31 | 42.25138 | 7.04242 | 34513 ft | 415 kts | 282° |
| 2026-05-06 16:32 | 42.26130 | 7.00532 | 34757 ft | 414 kts | 282° |
| 2026-05-06 16:32 | 42.27094 | 6.96927 | 35006 ft | 414 kts | 282° |
| 2026-05-06 16:32 | 42.28069 | 6.93275 | 35256 ft | 413 kts | 282° |
| 2026-05-06 16:32 | 42.29041 | 6.89625 | 35471 ft | 413 kts | 282° |
| 2026-05-06 16:33 | 42.30012 | 6.85976 | 35684 ft | 413 kts | 282° |
| 2026-05-06 16:33 | 42.30983 | 6.82322 | 35921 ft | 413 kts | 282° |
| 2026-05-06 16:33 | 42.31952 | 6.78674 | 36163 ft | 412 kts | 282° |
| 2026-05-06 16:34 | 42.33884 | 6.71374 | 36556 ft | 413 kts | 283° |
| 2026-05-06 16:34 | 42.34848 | 6.67726 | 36772 ft | 412 kts | 283° |
| 2026-05-06 16:34 | 42.35809 | 6.64081 | 36983 ft | 412 kts | 283° |
| 2026-05-06 16:34 | 42.36772 | 6.60426 | 37156 ft | 413 kts | 283° |
| 2026-05-06 16:35 | 42.37734 | 6.56764 | 37307 ft | 413 kts | 283° |
| 2026-05-06 16:35 | 42.38696 | 6.53100 | 37507 ft | 413 kts | 283° |
| 2026-05-06 16:35 | 42.39655 | 6.49445 | 37717 ft | 412 kts | 283° |
| 2026-05-06 16:35 | 42.40612 | 6.45790 | 37894 ft | 413 kts | 283° |
| 2026-05-06 16:36 | 42.41571 | 6.42118 | 37916 ft | 415 kts | 283° |
| 2026-05-06 16:36 | 42.43492 | 6.34751 | 37932 ft | 414 kts | 283° |
| 2026-05-06 16:37 | 42.45401 | 6.27413 | 37924 ft | 412 kts | 283° |
| 2026-05-06 16:37 | 42.47297 | 6.20104 | 37928 ft | 411 kts | 283° |
| 2026-05-06 16:38 | 42.49179 | 6.12817 | 37928 ft | 409 kts | 283° |
| 2026-05-06 16:38 | 42.51055 | 6.05536 | 37925 ft | 409 kts | 283° |
| 2026-05-06 16:39 | 42.52923 | 5.98258 | 37929 ft | 409 kts | 283° |
| 2026-05-06 16:39 | 42.54790 | 5.90965 | 37929 ft | 410 kts | 283° |
| 2026-05-06 16:40 | 42.56656 | 5.83650 | 37937 ft | 411 kts | 283° |
| 2026-05-06 16:40 | 42.58523 | 5.76314 | 37938 ft | 412 kts | 283° |
| 2026-05-06 16:41 | 42.60392 | 5.68946 | 37930 ft | 413 kts | 283° |
| 2026-05-06 16:41 | 42.62261 | 5.61555 | 37924 ft | 415 kts | 283° |
| 2026-05-06 16:42 | 42.64132 | 5.54133 | 37922 ft | 416 kts | 283° |
| 2026-05-06 16:42 | 42.66001 | 5.46693 | 37927 ft | 417 kts | 283° |
| 2026-05-06 16:43 | 42.67871 | 5.39231 | 37927 ft | 417 kts | 283° |
| 2026-05-06 16:43 | 42.69871 | 5.31867 | 37905 ft | 425 kts | 292° |
| 2026-05-06 16:43 | 42.71595 | 5.28544 | 37950 ft | 436 kts | 304° |
| 2026-05-06 16:44 | 42.73631 | 5.25471 | 37921 ft | 438 kts | 306° |
| 2026-05-06 16:44 | 42.77806 | 5.19419 | 37927 ft | 439 kts | 306° |
| 2026-05-06 16:45 | 42.81933 | 5.13303 | 37922 ft | 438 kts | 305° |
| 2026-05-06 16:45 | 42.86017 | 5.07145 | 37919 ft | 438 kts | 305° |
| 2026-05-06 16:46 | 42.90107 | 5.00979 | 37918 ft | 438 kts | 305° |
| 2026-05-06 16:46 | 42.94206 | 4.94824 | 37919 ft | 438 kts | 305° |
| 2026-05-06 16:47 | 42.98305 | 4.88658 | 37914 ft | 438 kts | 305° |
| 2026-05-06 16:47 | 43.02401 | 4.82477 | 37920 ft | 439 kts | 305° |
| 2026-05-06 16:48 | 43.06491 | 4.76289 | 37916 ft | 439 kts | 305° |
| 2026-05-06 16:48 | 43.10581 | 4.70087 | 37918 ft | 439 kts | 305° |
| 2026-05-06 16:49 | 43.14675 | 4.63865 | 37917 ft | 440 kts | 305° |
| 2026-05-06 16:49 | 43.18769 | 4.57632 | 37917 ft | 441 kts | 305° |
| 2026-05-06 16:50 | 43.22867 | 4.51377 | 37911 ft | 441 kts | 305° |
| 2026-05-06 16:50 | 43.26970 | 4.45102 | 37914 ft | 442 kts | 305° |
| 2026-05-06 16:51 | 43.31077 | 4.38807 | 37911 ft | 443 kts | 306° |
| 2026-05-06 16:51 | 43.35007 | 4.32769 | 37909 ft | 443 kts | 306° |
| 2026-05-06 16:52 | 43.39117 | 4.26443 | 37907 ft | 444 kts | 305° |
| 2026-05-06 16:52 | 43.43228 | 4.20101 | 37915 ft | 444 kts | 306° |
| 2026-05-06 16:53 | 43.47340 | 4.13742 | 37911 ft | 445 kts | 306° |
| 2026-05-06 16:53 | 43.50759 | 4.08444 | 37912 ft | 445 kts | 306° |
| 2026-05-06 16:54 | 43.54868 | 4.02061 | 37916 ft | 445 kts | 304° |
| 2026-05-06 16:54 | 43.58074 | 3.94972 | 37919 ft | 432 kts | 288° |
| 2026-05-06 16:55 | 43.59809 | 3.87156 | 37919 ft | 426 kts | 279° |
| 2026-05-06 16:55 | 43.61220 | 3.79209 | 37912 ft | 427 kts | 279° |
| 2026-05-06 16:56 | 43.62641 | 3.71242 | 37911 ft | 428 kts | 279° |
| 2026-05-06 16:56 | 43.64084 | 3.63259 | 37919 ft | 429 kts | 279° |
| 2026-05-06 16:57 | 43.65535 | 3.55261 | 37915 ft | 430 kts | 279° |
| 2026-05-06 16:57 | 43.66986 | 3.47240 | 37912 ft | 431 kts | 279° |
| 2026-05-06 16:58 | 43.68434 | 3.39198 | 37911 ft | 432 kts | 279° |
| 2026-05-06 16:58 | 43.69869 | 3.31194 | 37914 ft | 432 kts | 280° |
| 2026-05-06 16:59 | 43.71318 | 3.23074 | 37924 ft | 432 kts | 280° |
| 2026-05-06 16:59 | 43.72742 | 3.15058 | 37925 ft | 432 kts | 279° |
| 2026-05-06 17:00 | 43.74169 | 3.06993 | 37924 ft | 431 kts | 279° |
| 2026-05-06 17:00 | 43.75587 | 2.98940 | 37927 ft | 431 kts | 279° |
| 2026-05-06 17:01 | 43.76998 | 2.90894 | 37923 ft | 430 kts | 279° |
| 2026-05-06 17:01 | 43.78399 | 2.82864 | 37926 ft | 429 kts | 279° |
| 2026-05-06 17:02 | 43.79791 | 2.74849 | 37932 ft | 428 kts | 279° |
| 2026-05-06 17:02 | 43.81177 | 2.66836 | 37954 ft | 427 kts | 279° |
| 2026-05-06 17:03 | 43.82555 | 2.58826 | 37954 ft | 428 kts | 279° |
| 2026-05-06 17:03 | 43.83931 | 2.50799 | 37959 ft | 429 kts | 279° |
| 2026-05-06 17:04 | 43.85306 | 2.42736 | 37966 ft | 431 kts | 279° |
| 2026-05-06 17:04 | 43.86680 | 2.34642 | 37964 ft | 433 kts | 279° |
| 2026-05-06 17:05 | 43.88055 | 2.26510 | 37959 ft | 435 kts | 279° |
| 2026-05-06 17:05 | 43.89430 | 2.18335 | 37952 ft | 436 kts | 279° |
| 2026-05-06 17:06 | 43.90806 | 2.10120 | 37940 ft | 438 kts | 279° |
| 2026-05-06 17:06 | 43.92179 | 2.01882 | 37950 ft | 439 kts | 279° |
| 2026-05-06 17:07 | 43.93549 | 1.93630 | 37936 ft | 440 kts | 279° |
| 2026-05-06 17:07 | 43.94919 | 1.85354 | 37931 ft | 440 kts | 281° |
| 2026-05-06 17:08 | 43.97165 | 1.77406 | 37949 ft | 446 kts | 294° |
| 2026-05-06 17:08 | 44.00092 | 1.69791 | 37934 ft | 447 kts | 294° |
| 2026-05-06 17:09 | 44.03023 | 1.62179 | 37938 ft | 447 kts | 294° |
| 2026-05-06 17:09 | 44.05917 | 1.54541 | 37938 ft | 446 kts | 294° |
| 2026-05-06 17:10 | 44.08762 | 1.46962 | 37931 ft | 445 kts | 294° |
| 2026-05-06 17:10 | 44.11616 | 1.39327 | 37930 ft | 445 kts | 294° |
| 2026-05-06 17:11 | 44.14464 | 1.31688 | 37930 ft | 444 kts | 294° |
| 2026-05-06 17:11 | 44.17304 | 1.24052 | 37930 ft | 444 kts | 294° |
| 2026-05-06 17:12 | 44.20139 | 1.16409 | 37930 ft | 444 kts | 294° |
| 2026-05-06 17:12 | 44.22974 | 1.08744 | 37932 ft | 445 kts | 294° |
| 2026-05-06 17:13 | 44.25805 | 1.01068 | 37945 ft | 445 kts | 294° |
| 2026-05-06 17:13 | 44.28637 | 0.93371 | 37950 ft | 446 kts | 294° |
| 2026-05-06 17:14 | 44.31467 | 0.85655 | 37944 ft | 447 kts | 294° |
| 2026-05-06 17:14 | 44.34298 | 0.77916 | 37957 ft | 448 kts | 294° |
| 2026-05-06 17:15 | 44.37125 | 0.70165 | 37958 ft | 448 kts | 294° |
| 2026-05-06 17:15 | 44.39954 | 0.62391 | 37951 ft | 449 kts | 294° |
| 2026-05-06 17:16 | 44.42989 | 0.54766 | 37938 ft | 452 kts | 306° |
| 2026-05-06 17:16 | 44.47680 | 0.48864 | 37944 ft | 460 kts | 327° |
| 2026-05-06 17:17 | 44.53464 | 0.44920 | 37944 ft | 463 kts | 333° |
| 2026-05-06 17:17 | 44.59335 | 0.41176 | 37951 ft | 464 kts | 333° |
| 2026-05-06 17:18 | 44.65156 | 0.37373 | 37935 ft | 465 kts | 332° |
| 2026-05-06 17:18 | 44.70989 | 0.33488 | 37944 ft | 464 kts | 332° |
| 2026-05-06 17:19 | 44.76820 | 0.29580 | 37941 ft | 464 kts | 332° |
| 2026-05-06 17:19 | 44.82643 | 0.25671 | 37941 ft | 464 kts | 332° |
| 2026-05-06 17:20 | 44.88464 | 0.21757 | 37947 ft | 463 kts | 332° |
| 2026-05-06 17:20 | 44.94282 | 0.17837 | 37941 ft | 463 kts | 332° |
| 2026-05-06 17:21 | 45.00088 | 0.13917 | 37938 ft | 463 kts | 332° |
| 2026-05-06 17:21 | 45.05892 | 0.09989 | 37947 ft | 462 kts | 332° |
| 2026-05-06 17:22 | 45.11689 | 0.06061 | 37938 ft | 462 kts | 332° |
| 2026-05-06 17:22 | 45.17478 | 0.02128 | 37935 ft | 461 kts | 332° |
| 2026-05-06 17:23 | 45.23249 | -0.01801 | 37964 ft | 456 kts | 332° |
| 2026-05-06 17:23 | 45.28895 | -0.05653 | 37941 ft | 446 kts | 332° |
| 2026-05-06 17:24 | 45.34497 | -0.09487 | 37941 ft | 447 kts | 332° |
| 2026-05-06 17:24 | 45.40135 | -0.13354 | 37401 ft | 455 kts | 332° |
| 2026-05-06 17:24 | 45.42979 | -0.15308 | 36847 ft | 452 kts | 333° |
| 2026-05-06 17:25 | 45.45807 | -0.17251 | 36287 ft | 450 kts | 333° |
| 2026-05-06 17:25 | 45.48623 | -0.19189 | 35666 ft | 449 kts | 333° |
| 2026-05-06 17:25 | 45.51440 | -0.21130 | 35000 ft | 449 kts | 333° |
| 2026-05-06 17:25 | 45.54252 | -0.23070 | 34339 ft | 449 kts | 333° |
| 2026-05-06 17:26 | 45.57059 | -0.25009 | 33719 ft | 447 kts | 333° |
| 2026-05-06 17:26 | 45.59846 | -0.26936 | 32853 ft | 447 kts | 334° |
| 2026-05-06 17:26 | 45.62643 | -0.28872 | 32134 ft | 445 kts | 334° |
| 2026-05-06 17:26 | 45.65412 | -0.30845 | 31367 ft | 445 kts | 331° |
| 2026-05-06 17:27 | 45.67974 | -0.33240 | 30987 ft | 436 kts | 323° |
| 2026-05-06 17:27 | 45.70334 | -0.35873 | 30493 ft | 429 kts | 322° |
| 2026-05-06 17:27 | 45.72675 | -0.38557 | 29689 ft | 431 kts | 322° |
| 2026-05-06 17:27 | 45.75009 | -0.41251 | 28999 ft | 429 kts | 322° |
| 2026-05-06 17:28 | 45.77323 | -0.43913 | 28388 ft | 424 kts | 322° |
| 2026-05-06 17:28 | 45.79611 | -0.46531 | 27846 ft | 419 kts | 322° |
| 2026-05-06 17:28 | 45.81883 | -0.49117 | 27301 ft | 414 kts | 322° |
| 2026-05-06 17:28 | 45.84134 | -0.51675 | 26723 ft | 411 kts | 322° |
| 2026-05-06 17:29 | 45.86365 | -0.54208 | 26189 ft | 407 kts | 322° |
| 2026-05-06 17:29 | 45.88574 | -0.56716 | 25636 ft | 403 kts | 322° |
| 2026-05-06 17:29 | 45.90762 | -0.59204 | 25094 ft | 400 kts | 322° |
| 2026-05-06 17:29 | 45.92936 | -0.61677 | 24568 ft | 397 kts | 322° |
| 2026-05-06 17:30 | 45.95092 | -0.64133 | 24035 ft | 394 kts | 322° |
| 2026-05-06 17:30 | 45.97233 | -0.66574 | 23519 ft | 392 kts | 322° |
| 2026-05-06 17:30 | 45.99334 | -0.68972 | 22909 ft | 390 kts | 322° |
| 2026-05-06 17:30 | 46.01440 | -0.71379 | 22357 ft | 386 kts | 322° |
| 2026-05-06 17:31 | 46.03537 | -0.73778 | 21818 ft | 382 kts | 322° |
| 2026-05-06 17:31 | 46.05606 | -0.76147 | 21311 ft | 378 kts | 322° |
| 2026-05-06 17:31 | 46.07660 | -0.78503 | 20780 ft | 376 kts | 322° |
| 2026-05-06 17:31 | 46.09696 | -0.80838 | 20262 ft | 373 kts | 322° |
| 2026-05-06 17:32 | 46.11719 | -0.83162 | 19755 ft | 371 kts | 322° |
| 2026-05-06 17:32 | 46.13730 | -0.85474 | 19246 ft | 369 kts | 322° |
| 2026-05-06 17:32 | 46.15728 | -0.87774 | 18751 ft | 367 kts | 322° |
| 2026-05-06 17:32 | 46.17717 | -0.90064 | 18245 ft | 365 kts | 322° |
| 2026-05-06 17:33 | 46.19695 | -0.92344 | 17678 ft | 363 kts | 322° |
| 2026-05-06 17:33 | 46.21668 | -0.94620 | 17118 ft | 361 kts | 322° |
| 2026-05-06 17:33 | 46.23643 | -0.96899 | 16428 ft | 364 kts | 322° |
| 2026-05-06 17:33 | 46.25614 | -0.99173 | 15890 ft | 362 kts | 322° |
| 2026-05-06 17:34 | 46.27572 | -1.01433 | 15372 ft | 360 kts | 322° |
| 2026-05-06 17:34 | 46.29519 | -1.03684 | 14868 ft | 357 kts | 322° |
| 2026-05-06 17:34 | 46.31455 | -1.05924 | 14365 ft | 355 kts | 322° |
| 2026-05-06 17:34 | 46.33376 | -1.08150 | 13876 ft | 353 kts | 321° |
| 2026-05-06 17:35 | 46.35285 | -1.10363 | 13329 ft | 351 kts | 321° |
| 2026-05-06 17:35 | 46.37180 | -1.12563 | 12817 ft | 348 kts | 321° |
| 2026-05-06 17:35 | 46.39063 | -1.14750 | 12321 ft | 345 kts | 321° |
| 2026-05-06 17:36 | 46.42776 | -1.19070 | 11357 ft | 340 kts | 321° |
| 2026-05-06 17:36 | 46.44611 | -1.21208 | 10887 ft | 337 kts | 321° |
| 2026-05-06 17:36 | 46.46405 | -1.23299 | 10760 ft | 325 kts | 321° |
| 2026-05-06 17:36 | 46.48137 | -1.25321 | 10607 ft | 314 kts | 321° |
| 2026-05-06 17:37 | 46.49811 | -1.27277 | 10473 ft | 303 kts | 321° |
| 2026-05-06 17:37 | 46.51425 | -1.29163 | 10349 ft | 293 kts | 321° |
| 2026-05-06 17:37 | 46.52992 | -1.30997 | 10226 ft | 284 kts | 321° |
| 2026-05-06 17:37 | 46.54506 | -1.32768 | 10107 ft | 276 kts | 321° |
| 2026-05-06 17:38 | 46.55976 | -1.34490 | 9991 ft | 268 kts | 321° |
| 2026-05-06 17:38 | 46.57414 | -1.36176 | 9753 ft | 265 kts | 321° |
| 2026-05-06 17:38 | 46.58842 | -1.37851 | 9467 ft | 263 kts | 321° |
| 2026-05-06 17:38 | 46.60363 | -1.39283 | 9174 ft | 261 kts | 340° |
| 2026-05-06 17:39 | 46.62104 | -1.39967 | 8906 ft | 258 kts | 346° |
| 2026-05-06 17:39 | 46.63844 | -1.40608 | 8619 ft | 257 kts | 346° |
| 2026-05-06 17:39 | 46.64991 | -1.41039 | 8441 ft | 256 kts | 346° |
| 2026-05-06 17:39 | 46.66714 | -1.41691 | 8171 ft | 256 kts | 346° |
| 2026-05-06 17:40 | 46.68437 | -1.42348 | 7891 ft | 256 kts | 346° |
| 2026-05-06 17:40 | 46.70160 | -1.43007 | 7613 ft | 255 kts | 345° |
| 2026-05-06 17:40 | 46.71764 | -1.44068 | 7326 ft | 255 kts | 324° |
| 2026-05-06 17:40 | 46.73595 | -1.46175 | 6995 ft | 252 kts | 322° |
| 2026-05-06 17:41 | 46.74516 | -1.47250 | 6845 ft | 250 kts | 323° |
| 2026-05-06 17:41 | 46.75828 | -1.48782 | 6783 ft | 234 kts | 323° |
| 2026-05-06 17:41 | 46.77062 | -1.50220 | 6695 ft | 219 kts | 323° |
| 2026-05-06 17:41 | 46.78216 | -1.51562 | 6593 ft | 205 kts | 323° |
| 2026-05-06 17:42 | 46.79295 | -1.52815 | 6478 ft | 192 kts | 323° |
| 2026-05-06 17:42 | 46.80310 | -1.53992 | 6350 ft | 181 kts | 323° |
| 2026-05-06 17:42 | 46.81289 | -1.55126 | 6071 ft | 179 kts | 323° |
| 2026-05-06 17:42 | 46.82265 | -1.56256 | 5752 ft | 179 kts | 323° |
| 2026-05-06 17:43 | 46.83242 | -1.57387 | 5446 ft | 179 kts | 323° |
| 2026-05-06 17:43 | 46.84214 | -1.58513 | 5158 ft | 177 kts | 323° |
| 2026-05-06 17:43 | 46.85158 | -1.59607 | 5027 ft | 172 kts | 323° |
| 2026-05-06 17:43 | 46.86097 | -1.60695 | 4966 ft | 174 kts | 323° |
| 2026-05-06 17:44 | 46.87056 | -1.61807 | 4890 ft | 179 kts | 323° |
| 2026-05-06 17:44 | 46.88040 | -1.62948 | 4803 ft | 181 kts | 323° |
| 2026-05-06 17:44 | 46.89022 | -1.64088 | 4702 ft | 181 kts | 323° |
| 2026-05-06 17:44 | 46.90020 | -1.65247 | 4497 ft | 184 kts | 323° |
| 2026-05-06 17:45 | 46.91003 | -1.66389 | 4302 ft | 181 kts | 323° |
| 2026-05-06 17:45 | 46.91993 | -1.67539 | 4097 ft | 178 kts | 323° |
| 2026-05-06 17:45 | 46.92954 | -1.68658 | 3914 ft | 176 kts | 323° |
| 2026-05-06 17:45 | 46.93903 | -1.69761 | 3738 ft | 177 kts | 323° |
| 2026-05-06 17:46 | 46.94866 | -1.70883 | 3551 ft | 177 kts | 323° |
| 2026-05-06 17:46 | 46.95833 | -1.72008 | 3366 ft | 177 kts | 323° |
| 2026-05-06 17:46 | 46.96776 | -1.73102 | 3185 ft | 169 kts | 325° |
| 2026-05-06 17:46 | 46.97849 | -1.73567 | 3008 ft | 163 kts | 14° |
| 2026-05-06 17:47 | 46.98912 | -1.73012 | 3005 ft | 164 kts | 20° |
| 2026-05-06 17:47 | 46.99969 | -1.72450 | 3002 ft | 161 kts | 20° |
| 2026-05-06 17:47 | 47.01022 | -1.71866 | 2969 ft | 163 kts | 23° |
| 2026-05-06 17:47 | 47.02063 | -1.71170 | 2784 ft | 166 kts | 27° |
| 2026-05-06 17:48 | 47.03090 | -1.70411 | 2558 ft | 165 kts | 28° |
| 2026-05-06 17:48 | 47.04081 | -1.69659 | 2375 ft | 155 kts | 28° |
| 2026-05-06 17:48 | 47.05015 | -1.68946 | 2143 ft | 150 kts | 28° |
| 2026-05-06 17:48 | 47.05925 | -1.68250 | 1934 ft | 146 kts | 28° |
| 2026-05-06 17:49 | 47.06830 | -1.67557 | 1744 ft | 148 kts | 28° |
| 2026-05-06 17:49 | 47.07747 | -1.66856 | 1543 ft | 149 kts | 28° |
| 2026-05-06 17:49 | 47.08660 | -1.66158 | 1335 ft | 148 kts | 28° |
| 2026-05-06 17:49 | 47.09573 | -1.65460 | 1126 ft | 148 kts | 28° |
| 2026-05-06 17:50 | 47.10486 | -1.64762 | 928 ft | 148 kts | 28° |
| 2026-05-06 17:50 | 47.11405 | -1.64060 | 731 ft | 149 kts | 27° |
| 2026-05-06 17:50 | 47.12336 | -1.63354 | 562 ft | 153 kts | 27° |
| 2026-05-06 17:50 | 47.13284 | -1.62639 | 322 ft | 157 kts | 27° |
| 2026-05-06 17:51 | 47.14253 | -1.61896 | 123 ft | 157 kts | 27° |
| 2026-05-06 17:51 | 47.15147 | -1.61206 | 86 ft | 111 kts | 27° |
| 2026-05-06 17:51 | 47.15565 | -1.60885 | 87 ft | 45 kts | 27° |
| 2026-05-06 17:51 | 47.15724 | -1.60762 | 85 ft | 21 kts | 27° |
| 2026-05-06 17:52 | 47.15836 | -1.60624 | 84 ft | 22 kts | 82° |
| 2026-05-06 17:52 | 47.15759 | -1.60455 | 84 ft | 20 kts | 144° |
| 2026-05-06 17:52 | 47.15655 | -1.60340 | 88 ft | 15 kts | 138° |
| 2026-05-06 17:52 | 47.15667 | -1.60230 | 85 ft | 11 kts | 36° |
| 2026-05-06 17:53 | 47.15684 | -1.60213 | 84 ft | 0 kts | 34° |